Time;durP1;ratioP1;P1;durP2;ratioP2;P2;SDS_P1;SDS_P2;PMS_P1;PMS_P2;Temp;Humidity;BMP_temperature;BMP_pressure;BME280_temperature;BME280_humidity;BME280_pressure;Samples;Min_cycle;Max_cycle;Signal;HPM_P1;HPM_P2
2022/12/14 00:01:23;;;;;;;;;29.25;25.75;;;;;3.56;52.88;99349.00;6151658;23;45927;-74
2022/12/14 00:03:49;;;;;;;;;29.00;25.25;;;;;3.59;52.96;99356.56;6150494;23;47186;-72
2022/12/14 00:06:16;;;;;;;;;31.00;27.50;;;;;3.59;52.79;99362.56;6149016;23;46384;-73
2022/12/14 00:08:43;;;;;;;;;32.00;26.25;;;;;3.60;52.87;99360.81;6149548;23;45540;-73
2022/12/14 00:14:30;;;;;;;;;30.00;24.50;;;;;3.62;53.06;99364.94;6149599;23;45912;-73
2022/12/14 00:16:55;;;;;;;;;36.25;27.75;;;;;3.63;52.96;99365.78;6148829;23;47048;-74
2022/12/14 00:19:20;;;;;;;;;29.25;22.25;;;;;3.56;53.05;99352.41;6150057;23;45494;-73
2022/12/14 00:21:46;;;;;;;;;29.50;25.25;;;;;3.65;53.08;99357.00;6123571;23;45542;-74
2022/12/14 00:24:11;;;;;;;;;29.25;26.50;;;;;3.64;53.24;99357.09;6149297;23;46250;-72
2022/12/14 00:29:58;;;;;;;;;31.75;29.25;;;;;3.70;52.84;99343.75;6149698;23;45412;-74
2022/12/14 00:32:23;;;;;;;;;27.00;24.75;;;;;3.68;53.12;99343.84;6149958;23;45467;-74
2022/12/14 00:34:49;;;;;;;;;24.50;20.75;;;;;3.75;53.06;99349.47;6147487;23;46356;-75
2022/12/14 00:37:14;;;;;;;;;25.50;22.50;;;;;3.75;52.99;99341.72;6149762;23;45554;-74
2022/12/14 00:39:39;;;;;;;;;30.00;25.75;;;;;3.76;53.11;99335.59;6149118;23;45442;-72
2022/12/14 00:42:06;;;;;;;;;29.50;27.00;;;;;3.78;52.83;99336.31;6149370;23;45651;-73
2022/12/14 00:44:32;;;;;;;;;32.75;26.00;;;;;3.80;52.89;99326.72;6149974;23;46272;-73
2022/12/14 00:46:57;;;;;;;;;27.25;26.75;;;;;3.80;53.10;99313.75;6148973;23;45964;-74
2022/12/14 00:49:22;;;;;;;;;32.50;25.00;;;;;3.83;52.95;99320.50;6151694;23;45751;-73
2022/12/14 00:51:48;;;;;;;;;27.50;23.50;;;;;3.81;53.14;99318.00;6149977;23;45654;-72
2022/12/14 00:54:13;;;;;;;;;26.75;23.50;;;;;3.84;53.11;99323.00;6151131;23;46496;-73
2022/12/14 00:59:59;;;;;;;;;33.25;27.25;;;;;3.85;53.21;99310.88;6149561;23;45879;-72
2022/12/14 01:02:25;;;;;;;;;28.50;23.50;;;;;3.87;52.92;99316.78;6149962;23;45606;-72
2022/12/14 01:04:51;;;;;;;;;23.25;21.75;;;;;3.89;53.15;99309.75;6149013;23;47157;-73
2022/12/14 01:07:16;;;;;;;;;26.50;23.25;;;;;3.91;52.84;99324.25;6148995;23;46011;-72
2022/12/14 01:09:41;;;;;;;;;29.00;24.25;;;;;3.92;52.97;99325.09;6149738;23;45473;-73
2022/12/14 01:15:28;;;;;;;;;16.50;10.25;;;;;3.87;52.58;99330.56;6149117;23;46063;-72
2022/12/14 01:17:54;;;;;;;;;27.00;24.50;;;;;3.88;52.80;99344.38;6149429;23;45451;-74
2022/12/14 01:20:19;;;;;;;;;35.25;29.00;;;;;3.86;53.02;99341.88;6149373;23;45466;-71
2022/12/14 01:22:45;;;;;;;;;29.00;23.50;;;;;3.85;52.94;99360.09;6149353;23;45687;-73
2022/12/14 01:25:10;;;;;;;;;30.00;27.25;;;;;3.85;53.03;99362.69;6122709;23;46459;-72
2022/12/14 01:30:57;;;;;;;;;26.00;23.50;;;;;3.76;53.09;99348.56;6148983;23;45380;-71
2022/12/14 01:33:23;;;;;;;;;31.00;25.50;;;;;3.77;53.26;99350.22;6149089;23;45509;-73
2022/12/14 01:35:48;;;;;;;;;28.00;21.25;;;;;3.76;53.33;99351.16;6149460;23;45469;-72
2022/12/14 01:38:13;;;;;;;;;32.75;27.00;;;;;3.74;53.17;99359.00;6149489;23;45455;-72
2022/12/14 01:40:38;;;;;;;;;26.25;23.25;;;;;3.76;53.40;99361.50;6148899;23;45443;-74
2022/12/14 01:43:13;;;;;;;;;30.25;27.25;;;;;3.75;53.37;99352.06;6151830;23;45458;-74
2022/12/14 01:45:40;;;;;;;;;24.25;21.00;;;;;3.71;53.52;99353.19;6151048;23;47505;-72
2022/12/14 01:48:12;;;;;;;;;26.25;20.25;;;;;3.72;53.49;99347.09;6149026;23;46027;-72
2022/12/14 01:50:42;;;;;;;;;28.50;23.50;;;;;3.71;53.46;99341.09;6149106;23;45818;-71
2022/12/14 01:53:18;;;;;;;;;43.00;31.25;;;;;3.69;54.37;99355.88;6149951;23;45744;-71
2022/12/14 01:55:49;;;;;;;;;33.00;29.00;;;;;3.61;55.40;99355.53;6149257;23;45594;-72
2022/12/14 01:58:19;;;;;;;;;32.75;28.50;;;;;3.61;56.09;99350.38;6149287;23;45913;-73
2022/12/14 02:00:47;;;;;;;;;36.25;34.75;;;;;3.55;56.03;99353.34;6149599;23;45621;-73
2022/12/14 02:03:31;;;;;;;;;43.50;31.50;;;;;3.51;56.61;99351.84;6149945;23;45499;-74
2022/12/14 02:06:21;;;;;;;;;40.00;33.50;;;;;3.44;56.60;99360.94;6148754;23;46255;-73
2022/12/14 02:08:51;;;;;;;;;32.75;27.25;;;;;3.40;57.07;99371.56;6148397;23;46126;-73
2022/12/14 02:11:26;;;;;;;;;30.25;27.75;;;;;3.25;56.91;99347.44;6149246;23;45771;-74
2022/12/14 02:13:52;;;;;;;;;35.25;30.25;;;;;3.29;57.11;99348.94;6149210;23;45567;-73
2022/12/14 02:16:17;;;;;;;;;39.00;31.50;;;;;3.26;57.23;99360.31;6148966;23;45787;-72
2022/12/14 02:18:42;;;;;;;;;31.25;25.50;;;;;3.24;57.35;99340.63;6148652;23;47182;-71
2022/12/14 02:21:42;;;;;;;;;41.25;29.00;;;;;3.22;57.37;99335.56;6149324;23;45558;-73
2022/12/14 02:24:28;;;;;;;;;35.50;28.50;;;;;3.21;57.16;99328.69;6148892;23;45840;-73
2022/12/14 02:27:07;;;;;;;;;38.75;30.75;;;;;3.19;56.95;99320.19;6148888;23;45646;-74
2022/12/14 02:29:49;;;;;;;;;32.00;22.25;;;;;3.22;57.22;99314.00;6148685;23;46234;-72
2022/12/14 02:32:33;;;;;;;;;26.50;25.50;;;;;3.21;57.16;99304.59;6148811;23;45510;-74
2022/12/14 02:35:22;;;;;;;;;33.25;25.75;;;;;3.23;57.11;99298.41;6150954;23;45526;-76
2022/12/14 02:38:09;;;;;;;;;33.25;30.00;;;;;3.25;57.98;99296.53;6151231;23;45553;-73
2022/12/14 02:40:45;;;;;;;;;37.25;34.75;;;;;3.24;57.97;99278.53;6149532;23;46042;-73
2022/12/14 02:43:38;;;;;;;;;26.00;23.00;;;;;3.23;58.17;99263.94;6149334;23;45544;-74
2022/12/14 02:46:06;;;;;;;;;32.75;28.75;;;;;3.24;58.06;99284.50;6148470;23;45475;-74
2022/12/14 02:48:39;;;;;;;;;31.25;26.50;;;;;3.23;58.07;99287.22;6148489;23;47812;-74
2022/12/14 02:51:10;;;;;;;;;29.75;26.25;;;;;3.26;58.09;99279.25;6148582;23;46321;-73
2022/12/14 02:53:47;;;;;;;;;31.75;22.75;;;;;3.22;58.55;99263.09;6149415;23;45738;-73
2022/12/14 02:56:18;;;;;;;;;34.25;29.00;;;;;3.23;58.61;99254.41;6148935;23;45447;-72
2022/12/14 02:58:49;;;;;;;;;36.00;30.75;;;;;3.25;58.71;99246.53;6147468;23;46473;-73
2022/12/14 03:01:28;;;;;;;;;30.25;25.50;;;;;3.24;58.72;99247.47;6148370;23;47092;-73
2022/12/14 03:03:54;;;;;;;;;27.00;24.00;;;;;3.27;59.10;99255.03;6148233;23;45616;-71
2022/12/14 03:06:25;;;;;;;;;36.00;32.00;;;;;3.27;59.50;99255.88;6149019;23;45503;-73
2022/12/14 03:09:10;;;;;;;;;37.00;33.50;;;;;3.26;59.09;99256.78;6148302;23;46330;-74
2022/12/14 03:14:39;;;;;;;;;38.75;28.00;;;;;3.23;59.58;99251.81;6150078;23;45579;-72
2022/12/14 03:17:16;;;;;;;;;39.50;31.25;;;;;3.26;59.86;99250.78;6150298;23;45487;-72
2022/12/14 03:19:48;;;;;;;;;28.00;23.00;;;;;3.21;59.52;99255.41;6123326;23;48516;-72
2022/12/14 03:22:23;;;;;;;;;34.25;28.50;;;;;3.25;59.55;99265.47;6150265;23;45628;-71
2022/12/14 03:24:53;;;;;;;;;32.75;26.00;;;;;3.21;59.41;99261.44;6149759;23;45503;-72
2022/12/14 03:30:45;;;;;;;;;35.50;31.25;;;;;3.27;59.62;99252.44;6151382;23;45464;-72
2022/12/14 03:33:16;;;;;;;;;31.00;26.50;;;;;3.13;59.37;99227.44;6150299;23;45955;-72
2022/12/14 03:35:48;;;;;;;;;31.75;23.75;;;;;3.29;59.69;99242.84;6150260;23;45507;-72
2022/12/14 03:38:42;;;;;;;;;31.75;26.50;;;;;3.30;59.55;99253.06;6149812;23;45574;-71
2022/12/14 03:41:27;;;;;;;;;11.75;5.50;;;;;3.29;59.66;99254.00;6149086;23;45521;-72
2022/12/14 03:47:38;;;;;;;;;29.75;26.25;;;;;3.28;59.69;99231.66;6145337;23;45764;-71
2022/12/14 03:50:17;;;;;;;;;31.50;24.75;;;;;3.32;59.80;99230.53;6149810;23;45680;-73
2022/12/14 03:53:18;;;;;;;;;34.00;28.50;;;;;3.33;59.64;99219.25;6149311;23;46561;-74
2022/12/14 03:55:58;;;;;;;;;34.75;28.25;;;;;3.34;60.25;99209.72;6058107;23;46067;-74
2022/12/14 04:02:04;;;;;;;;;33.75;28.00;;;;;3.34;59.86;99207.16;6058959;23;45614;-72
2022/12/14 04:04:45;;;;;;;;;24.25;19.75;;;;;3.35;60.06;99221.72;6059186;23;46719;-73
2022/12/14 04:07:28;;;;;;;;;30.00;27.00;;;;;3.37;60.05;99219.88;6058442;23;46356;-71
2022/12/14 04:18:55;;;;;;;;;34.50;30.25;;;;;3.37;60.24;99220.72;6058575;23;45701;-73
2022/12/14 04:21:42;;;;;;;;;30.75;26.50;;;;;3.36;60.40;99200.09;6029938;23;45834;-73
2022/12/14 04:27:33;;;;;;;;;34.25;28.75;;;;;3.34;60.59;99192.44;6029911;23;45605;-72
2022/12/14 04:30:01;;;;;;;;;31.75;27.50;;;;;3.30;60.76;99188.38;5888788;24;46693;-74
2022/12/14 04:32:50;;;;;;;;;25.50;22.00;;;;;3.32;60.71;99198.63;5925197;23;45966;-74
2022/12/14 04:35:24;;;;;;;;;34.00;30.50;;;;;3.30;60.75;99190.97;5944691;23;45731;-73
2022/12/14 04:37:56;;;;;;;;;35.25;28.25;;;;;3.32;61.15;99190.88;5944082;23;46470;-74
2022/12/14 04:40:36;;;;;;;;;34.00;29.00;;;;;3.29;61.09;99202.25;5945069;23;46400;-73
2022/12/14 04:46:29;;;;;;;;;34.25;28.50;;;;;3.29;61.05;99214.38;5944021;23;45517;-74
2022/12/14 04:49:08;;;;;;;;;47.00;34.50;;;;;3.26;61.39;99219.72;5945279;23;45614;-74
2022/12/14 04:51:46;;;;;;;;;29.25;25.75;;;;;3.18;61.67;99228.00;5920950;23;47868;-73
2022/12/14 04:54:44;;;;;;;;;27.00;22.50;;;;;3.11;61.42;99226.72;5944336;23;45431;-73
2022/12/14 04:57:18;;;;;;;;;42.75;33.25;;;;;3.03;61.68;99212.56;5953375;23;45536;-74
2022/12/14 05:03:19;;;;;;;;;23.75;16.25;;;;;2.99;61.65;99222.28;6001160;23;46055;-74
2022/12/14 05:06:09;;;;;;;;;27.75;22.00;;;;;3.00;61.44;99218.78;5977296;23;45769;-73
2022/12/14 05:08:53;;;;;;;;;35.25;29.00;;;;;3.00;61.85;99228.31;6151058;23;45460;-73
2022/12/14 05:11:25;;;;;;;;;36.25;30.50;;;;;2.99;61.94;99230.06;6151420;23;45471;-74
2022/12/14 05:13:51;;;;;;;;;35.25;29.25;;;;;2.91;62.12;99214.19;6149736;23;47246;-74
2022/12/14 05:16:18;;;;;;;;;32.50;25.00;;;;;2.93;62.09;99213.16;6149439;23;45787;-73
2022/12/14 05:18:44;;;;;;;;;30.50;28.25;;;;;2.93;62.13;99213.16;6150616;23;45652;-71
2022/12/14 05:21:45;;;;;;;;;31.50;24.75;;;;;2.88;62.11;99204.88;6150596;23;46542;-71
2022/12/14 05:24:03;;;;;;;;;30.50;27.25;;;;;2.89;62.25;99211.69;6151596;23;45775;-72
2022/12/14 05:26:29;;;;;;;;;36.25;29.25;;;;;2.81;61.99;99203.56;6151744;23;45444;-73
2022/12/14 05:28:55;;;;;;;;;30.00;25.25;;;;;2.77;61.50;99203.88;6153163;23;45589;-73
2022/12/14 05:31:21;;;;;;;;;31.00;28.25;;;;;2.82;62.44;99209.56;6151133;23;45676;-74
2022/12/14 05:33:46;;;;;;;;;33.75;27.50;;;;;2.80;61.83;99206.28;6123395;23;47762;-71
2022/12/14 05:36:12;;;;;;;;;32.25;29.00;;;;;2.79;62.05;99195.09;6151196;23;45582;-74
2022/12/14 05:38:37;;;;;;;;;37.50;29.25;;;;;2.81;62.03;99200.97;6150339;23;45926;-73
2022/12/14 05:41:03;;;;;;;;;38.25;29.00;;;;;2.75;62.20;99187.63;6149799;23;47511;-74
2022/12/14 05:43:28;;;;;;;;;27.00;24.50;;;;;2.80;61.82;99207.09;6150129;23;46187;-73
2022/12/14 05:49:29;;;;;;;;;30.00;24.50;;;;;2.69;62.10;99203.53;6147053;23;45748;-73
2022/12/14 05:51:54;;;;;;;;;33.00;25.50;;;;;2.71;62.23;99212.00;6150191;23;46544;-73
2022/12/14 05:54:19;;;;;;;;;26.25;23.50;;;;;2.81;62.72;99233.78;6150087;23;45994;-74
2022/12/14 05:56:45;;;;;;;;;30.25;22.50;;;;;2.81;62.19;99241.53;6149613;23;45563;-73
2022/12/14 05:59:14;;;;;;;;;34.50;30.75;;;;;2.81;62.67;99241.53;6148983;23;45475;-71
2022/12/14 06:01:40;;;;;;;;;30.50;26.00;;;;;2.75;62.21;99232.41;6149415;23;45436;-73
2022/12/14 06:04:06;;;;;;;;;27.00;24.50;;;;;2.85;62.53;99250.78;6152139;23;46363;-74
2022/12/14 06:06:32;;;;;;;;;33.25;25.00;;;;;2.78;62.75;99233.97;6151205;23;45648;-72
2022/12/14 06:08:57;;;;;;;;;27.50;26.25;;;;;2.86;62.67;99242.91;6124825;23;45785;-73
2022/12/14 06:11:23;;;;;;;;;34.67;28.00;;;;;2.86;62.81;99247.28;6149463;23;47402;-73
2022/12/14 06:13:48;;;;;;;;;31.25;23.75;;;;;2.81;62.79;99242.34;6150356;23;45983;-72
2022/12/14 06:19:36;;;;;;;;;31.50;26.75;;;;;2.84;62.54;99252.53;6149398;23;45502;-72
2022/12/14 06:22:01;;;;;;;;;33.25;27.50;;;;;2.87;62.89;99259.25;6149001;23;45662;-74
2022/12/14 06:24:27;;;;;;;;;33.75;25.50;;;;;2.88;63.10;99256.59;6149063;23;46201;-73
2022/12/14 06:26:52;;;;;;;;;41.25;34.75;;;;;2.87;63.02;99251.50;6148794;23;45541;-72
2022/12/14 06:29:18;;;;;;;;;28.75;24.00;;;;;2.88;63.07;99253.16;6149790;23;45575;-73
2022/12/14 06:35:06;;;;;;;;;26.75;25.00;;;;;2.80;63.51;99239.88;6149004;23;45941;-73
2022/12/14 06:37:31;;;;;;;;;25.75;22.75;;;;;2.86;63.61;99250.66;6148496;23;45471;-74
2022/12/14 06:39:57;;;;;;;;;27.75;24.50;;;;;2.85;63.50;99249.03;6148600;23;45488;-74
2022/12/14 06:42:22;;;;;;;;;38.25;32.25;;;;;2.86;63.26;99244.69;6122071;23;46469;-72
2022/12/14 06:44:48;;;;;;;;;33.00;30.00;;;;;2.88;63.41;99246.25;6147251;23;46190;-73
2022/12/14 06:47:13;;;;;;;;;29.50;24.75;;;;;2.90;63.66;99248.75;6149207;23;45493;-73
2022/12/14 06:49:38;;;;;;;;;35.50;30.75;;;;;2.85;63.47;99237.84;6148630;23;45632;-74
2022/12/14 06:52:04;;;;;;;;;27.50;25.00;;;;;2.89;63.18;99245.31;6149336;23;45552;-75
2022/12/14 06:54:29;;;;;;;;;35.25;27.25;;;;;2.93;63.53;99246.78;6149554;23;45642;-74
2022/12/14 06:56:54;;;;;;;;;35.00;31.50;;;;;2.97;63.41;99251.78;6148320;23;45495;-74
2022/12/14 06:59:20;;;;;;;;;34.25;28.50;;;;;2.98;63.24;99256.84;6149567;23;45485;-73
2022/12/14 07:05:07;;;;;;;;;35.75;27.50;;;;;2.99;63.50;99268.84;6148496;23;45678;-74
2022/12/14 07:07:33;;;;;;;;;33.75;27.25;;;;;3.02;63.46;99260.94;6148791;23;45665;-73
2022/12/14 07:09:59;;;;;;;;;37.00;30.50;;;;;2.97;63.50;99258.59;6149221;23;45605;-73
2022/12/14 07:12:24;;;;;;;;;41.25;34.00;;;;;3.03;63.67;99278.09;6148041;23;47186;-75
2022/12/14 07:14:49;;;;;;;;;29.00;25.75;;;;;3.02;63.82;99279.03;6148498;23;45807;-73
2022/12/14 07:20:38;;;;;;;;;38.00;31.00;;;;;3.02;64.13;99289.38;6148189;23;45582;-74
2022/12/14 07:23:03;;;;;;;;;38.75;33.00;;;;;3.00;63.90;99280.88;6148747;23;46697;-76
2022/12/14 07:25:28;;;;;;;;;30.00;27.00;;;;;3.02;64.05;99302.31;6148220;23;46042;-72
2022/12/14 07:27:54;;;;;;;;;32.50;27.75;;;;;2.97;64.07;99288.00;6147503;23;45526;-74
2022/12/14 07:30:19;;;;;;;;;40.75;31.25;;;;;3.04;64.35;99309.97;6148245;23;45828;-72
2022/12/14 07:36:09;;;;;;;;;26.25;25.50;;;;;2.88;64.14;99297.97;6148017;23;45972;-73
2022/12/14 07:38:36;;;;;;;;;29.00;26.25;;;;;3.01;64.54;99313.56;6121731;23;45587;-71
2022/12/14 07:41:08;;;;;;;;;29.25;26.25;;;;;2.99;64.71;99312.81;6148729;23;45562;-71
2022/12/14 07:43:34;;;;;;;;;26.50;25.25;;;;;3.03;65.13;99331.56;6147669;23;47207;-72
2022/12/14 07:46:05;;;;;;;;;41.50;30.25;;;;;3.00;65.06;99332.59;6147246;23;46082;-71
2022/12/14 07:48:31;;;;;;;;;31.75;29.75;;;;;3.00;64.47;99331.78;6148612;23;45725;-73
2022/12/14 07:51:04;;;;;;;;;33.50;29.25;;;;;3.00;65.08;99334.34;6150524;23;45455;-70
2022/12/14 07:53:30;;;;;;;;;36.25;29.00;;;;;2.99;64.67;99335.28;6147733;23;46332;-71
2022/12/14 07:56:00;;;;;;;;;32.50;31.25;;;;;2.97;64.64;99331.03;6122215;23;45972;-72
2022/12/14 07:58:25;;;;;;;;;35.75;31.00;;;;;2.98;65.19;99329.28;6149355;23;45728;-71
2022/12/14 08:00:51;;;;;;;;;37.00;28.25;;;;;2.95;65.15;99330.31;6149736;23;45662;-72
2022/12/14 08:03:16;;;;;;;;;31.25;25.75;;;;;2.91;65.35;99322.81;6149212;23;46370;-71
2022/12/14 08:05:42;;;;;;;;;35.25;32.25;;;;;2.97;64.81;99340.53;6149698;23;45993;-71
2022/12/14 08:08:07;;;;;;;;;43.75;36.00;;;;;2.94;64.94;99336.38;6149084;23;45453;-71
2022/12/14 08:10:32;;;;;;;;;33.50;29.75;;;;;2.97;65.06;99337.13;6150054;23;45463;-71
2022/12/14 08:12:58;;;;;;;;;30.00;21.00;;;;;2.95;65.03;99348.41;6148916;23;46357;-71
2022/12/14 08:15:23;;;;;;;;;37.75;34.00;;;;;2.95;64.94;99352.75;6149264;23;46066;-71
2022/12/14 08:21:11;;;;;;;;;18.50;17.25;;;;;2.92;65.15;99348.56;6149910;23;45601;-72
2022/12/14 08:23:37;;;;;;;;;34.50;26.75;;;;;2.92;64.83;99348.56;6149160;23;46364;-71
2022/12/14 08:26:05;;;;;;;;;45.50;32.75;;;;;2.92;64.61;99342.56;6148726;23;46925;-72
2022/12/14 08:28:31;;;;;;;;;32.00;29.00;;;;;2.92;64.70;99335.63;6149208;23;45748;-71
2022/12/14 08:31:03;;;;;;;;;41.50;32.00;;;;;2.96;64.84;99338.91;6149364;23;45679;-72
2022/12/14 08:36:50;;;;;;;;;30.50;27.00;;;;;2.99;64.89;99345.63;6149380;23;45649;-72
2022/12/14 08:39:16;;;;;;;;;37.75;31.00;;;;;2.99;64.72;99348.22;6149854;23;45633;-71
2022/12/14 08:41:41;;;;;;;;;31.25;26.75;;;;;3.03;64.67;99360.84;6149670;23;45824;-71
2022/12/14 08:44:08;;;;;;;;;34.25;25.00;;;;;3.05;64.57;99353.84;6149433;23;46180;-72
2022/12/14 08:46:34;;;;;;;;;34.50;31.75;;;;;3.12;64.50;99343.97;6149241;23;46325;-72
2022/12/14 08:48:59;;;;;;;;;35.75;29.50;;;;;3.15;64.37;99354.94;6149605;23;45785;-71
2022/12/14 08:51:26;;;;;;;;;34.00;30.25;;;;;3.15;64.26;99352.38;6149397;23;45833;-72
2022/12/14 08:53:52;;;;;;;;;35.75;26.75;;;;;3.19;64.32;99355.59;6148707;23;46234;-73
2022/12/14 08:56:22;;;;;;;;;39.25;31.25;;;;;3.20;64.08;99365.84;6149507;23;46066;-72
2022/12/14 08:58:47;;;;;;;;;36.25;30.75;;;;;3.20;63.84;99363.25;6149234;23;45565;-72
2022/12/14 09:01:15;;;;;;;;;32.00;27.75;;;;;3.22;63.97;99364.00;6149334;23;45844;-72
2022/12/14 09:07:02;;;;;;;;;27.50;25.25;;;;;3.22;63.36;99376.13;6148740;23;45635;-73
2022/12/14 09:09:28;;;;;;;;;28.00;26.00;;;;;3.19;63.58;99368.53;6149056;23;45461;-71
2022/12/14 09:11:53;;;;;;;;;26.25;24.75;;;;;3.19;63.23;99369.34;6149220;23;45459;-72
2022/12/14 09:14:18;;;;;;;;;31.00;28.75;;;;;3.23;63.56;99375.19;6149499;23;46375;-72
2022/12/14 09:16:44;;;;;;;;;36.25;27.75;;;;;3.22;63.14;99382.13;6149398;23;45654;-71
2022/12/14 09:19:11;;;;;;;;;42.75;35.50;;;;;3.25;62.89;99396.63;6149006;23;45514;-71
2022/12/14 09:21:37;;;;;;;;;31.50;23.00;;;;;3.24;63.03;99395.78;6149293;23;45657;-72
2022/12/14 09:24:04;;;;;;;;;32.25;28.75;;;;;3.27;63.24;99400.78;6148778;23;46299;-72
2022/12/14 09:26:30;;;;;;;;;35.00;29.00;;;;;3.21;63.26;99388.22;6149325;23;46270;-71
2022/12/14 09:28:56;;;;;;;;;33.25;27.00;;;;;3.34;63.11;99414.19;6149007;23;45530;-71
2022/12/14 09:31:24;;;;;;;;;32.00;28.00;;;;;3.36;63.00;99422.69;6149136;23;45779;-72
2022/12/14 09:37:13;;;;;;;;;36.75;31.75;;;;;3.41;62.81;99425.81;6148975;23;46171;-72
2022/12/14 09:39:39;;;;;;;;;32.00;27.75;;;;;3.43;62.73;99429.16;6149136;23;45847;-71
2022/12/14 09:42:49;;;;;;;;;37.75;34.25;;;;;3.34;62.52;99409.03;6149679;23;45578;-71
2022/12/14 09:45:40;;;;;;;;;28.50;27.00;;;;;3.50;62.22;99419.28;6058551;23;47559;-71
2022/12/14 09:48:23;;;;;;;;;35.00;26.75;;;;;3.49;62.05;99412.41;6058271;23;47672;-71
2022/12/14 09:50:51;;;;;;;;;35.50;29.00;;;;;3.53;61.97;99424.25;6059226;23;45920;-71
2022/12/14 09:53:18;;;;;;;;;29.75;23.25;;;;;3.57;62.13;99428.31;6058697;23;45602;-72
2022/12/14 09:55:48;;;;;;;;;31.00;27.00;;;;;3.58;61.96;99428.22;6057598;23;46396;-72
2022/12/14 09:58:26;;;;;;;;;35.25;30.25;;;;;3.57;61.57;99423.97;6058806;23;46006;-70
2022/12/14 10:01:33;;;;;;;;;44.00;37.00;;;;;3.62;61.50;99424.50;6058590;23;45870;-71
2022/12/14 10:04:11;;;;;;;;;39.00;30.50;;;;;3.61;61.57;99422.88;6029128;23;45929;-72
2022/12/14 10:06:52;;;;;;;;;33.75;31.50;;;;;3.62;61.11;99418.50;6029545;23;45688;-72
2022/12/14 10:09:38;;;;;;;;;47.25;33.00;;;;;3.63;61.22;99418.41;6029319;23;46132;-72
2022/12/14 10:12:31;;;;;;;;;31.75;29.00;;;;;3.65;61.30;99426.94;6029656;23;45649;-71
2022/12/14 10:15:26;;;;;;;;;31.75;28.50;;;;;3.61;61.01;99411.69;6029028;23;45681;-72
2022/12/14 10:18:37;;;;;;;;;40.25;31.00;;;;;3.70;61.24;99424.88;6028770;23;45895;-72
2022/12/14 10:21:11;;;;;;;;;39.75;32.25;;;;;3.72;60.92;99427.38;6079593;23;45739;-72
2022/12/14 10:23:43;;;;;;;;;38.75;34.50;;;;;3.75;60.93;99433.19;6091757;23;46010;-70
2022/12/14 10:26:15;;;;;;;;;37.50;34.25;;;;;3.77;60.71;99426.19;6116482;23;45873;-72
2022/12/14 10:28:58;;;;;;;;;48.50;34.75;;;;;3.83;60.96;99426.72;6116711;23;45591;-72
2022/12/14 10:35:33;;;;;;;;;39.75;31.00;;;;;3.90;60.63;99425.38;6000346;23;45857;-73
2022/12/14 10:38:30;;;;;;;;;44.50;39.50;;;;;3.91;60.55;99420.13;6000034;23;45933;-71
2022/12/14 10:41:12;;;;;;;;;40.25;35.00;;;;;3.90;60.17;99417.63;5994696;23;47253;-71
2022/12/14 10:43:50;;;;;;;;;48.50;34.25;;;;;3.91;60.09;99422.69;6000935;23;46225;-71
2022/12/14 10:46:50;;;;;;;;;44.25;37.50;;;;;3.95;59.86;99423.34;6001682;23;45541;-73
2022/12/14 10:49:22;;;;;;;;;43.25;37.00;;;;;4.00;59.84;99426.47;6013306;23;45945;-73
2022/12/14 10:51:54;;;;;;;;;37.00;31.25;;;;;4.02;59.34;99430.63;6030603;23;46367;-72
2022/12/14 10:54:32;;;;;;;;;44.50;33.50;;;;;4.02;59.56;99433.22;6029812;23;46229;-71
2022/12/14 10:56:58;;;;;;;;;46.25;38.25;;;;;4.02;59.34;99429.81;6028684;23;45790;-71
2022/12/14 10:59:25;;;;;;;;;40.75;36.50;;;;;4.00;58.94;99442.84;6029805;23;45725;-72
2022/12/14 11:01:53;;;;;;;;;41.00;34.50;;;;;4.00;58.88;99440.25;6005184;23;45679;-72
2022/12/14 11:04:32;;;;;;;;;44.50;37.00;;;;;3.94;58.79;99435.44;6028250;23;46276;-71
2022/12/14 11:07:00;;;;;;;;;39.00;28.00;;;;;3.97;59.08;99447.41;6029249;23;45491;-70
2022/12/14 11:09:26;;;;;;;;;42.00;32.75;;;;;3.97;58.47;99442.22;6139795;23;45713;-72
2022/12/14 11:12:01;;;;;;;;;50.25;42.00;;;;;3.95;58.68;99447.47;6148755;23;45666;-71
2022/12/14 11:14:27;;;;;;;;;35.25;29.75;;;;;3.93;58.24;99446.78;6147876;23;46144;-73
2022/12/14 11:16:53;;;;;;;;;42.00;33.75;;;;;3.97;58.23;99439.63;6148032;23;45562;-71
2022/12/14 11:19:21;;;;;;;;;36.50;33.50;;;;;3.96;58.01;99432.78;6148923;23;45594;-72
2022/12/14 11:21:48;;;;;;;;;46.25;39.00;;;;;3.96;57.90;99438.78;6148181;23;47710;-72
2022/12/14 11:24:22;;;;;;;;;38.75;35.75;;;;;3.97;58.04;99434.44;6147763;23;47470;-72
2022/12/14 11:26:49;;;;;;;;;37.25;30.25;;;;;3.98;58.00;99442.13;6148067;23;45782;-71
2022/12/14 11:29:26;;;;;;;;;42.50;33.50;;;;;3.93;57.76;99426.03;6148290;23;45836;-71
2022/12/14 11:31:52;;;;;;;;;44.75;35.00;;;;;4.00;57.66;99445.44;6149114;23;47297;-71
2022/12/14 11:34:19;;;;;;;;;45.50;33.25;;;;;3.99;57.54;99442.97;6122515;23;47630;-72
2022/12/14 11:37:19;;;;;;;;;45.00;35.50;;;;;3.98;57.28;99447.31;6149298;23;45664;-72
2022/12/14 11:39:49;;;;;;;;;44.25;33.50;;;;;3.99;57.30;99456.75;6149592;23;45484;-71
2022/12/14 11:42:17;;;;;;;;;41.00;35.50;;;;;4.00;57.24;99463.56;6149525;23;46537;-71
2022/12/14 11:44:44;;;;;;;;;41.25;33.75;;;;;4.01;57.54;99469.59;6149071;23;47025;-73
2022/12/14 11:47:11;;;;;;;;;25.50;23.25;;;;;4.03;57.24;99459.97;6149114;23;45573;-72
2022/12/14 11:49:37;;;;;;;;;27.50;20.00;;;;;4.05;57.61;99463.31;6142735;23;45874;-72
2022/12/14 11:52:17;;;;;;;;;41.50;34.25;;;;;4.09;57.43;99469.97;6149956;23;46513;-71
2022/12/14 11:54:46;;;;;;;;;47.00;43.50;;;;;4.12;57.25;99459.38;6151017;23;46082;-72
2022/12/14 11:57:18;;;;;;;;;45.50;37.25;;;;;4.13;57.01;99446.34;6150213;23;45824;-71
2022/12/14 11:59:48;;;;;;;;;43.75;36.25;;;;;4.17;57.08;99447.81;6150489;23;45712;-72
2022/12/14 12:02:42;;;;;;;;;39.75;34.50;;;;;4.20;56.87;99450.22;6150267;23;46409;-71
2022/12/14 12:05:12;;;;;;;;;45.50;38.50;;;;;4.21;56.75;99444.06;6057953;23;46298;-72
2022/12/14 12:07:58;;;;;;;;;42.25;40.25;;;;;4.26;56.32;99442.97;6058101;23;45612;-72
2022/12/14 12:10:44;;;;;;;;;39.50;33.25;;;;;4.28;56.38;99439.34;6058647;23;45704;-72
2022/12/14 12:13:39;;;;;;;;;42.25;36.00;;;;;4.30;56.22;99439.25;6029173;23;47680;-72
2022/12/14 12:16:13;;;;;;;;;39.50;35.50;;;;;4.30;55.84;99442.69;6027610;23;45999;-71
2022/12/14 12:22:03;;;;;;;;;49.75;39.50;;;;;4.32;55.96;99442.59;6029702;23;45694;-72
2022/12/14 12:24:33;;;;;;;;;43.50;35.75;;;;;4.32;55.75;99443.38;6028886;23;47294;-72
2022/12/14 12:27:12;;;;;;;;;44.25;36.50;;;;;4.26;55.61;99433.44;6005323;23;46940;-71
2022/12/14 12:29:49;;;;;;;;;39.50;35.75;;;;;4.34;55.59;99453.66;6029604;23;45671;-71
2022/12/14 12:32:20;;;;;;;;;42.25;36.00;;;;;4.34;55.51;99462.28;6030151;23;45637;-73
2022/12/14 12:38:16;;;;;;;;;52.25;39.75;;;;;4.34;55.58;99467.47;6029403;23;45696;-71
2022/12/14 12:40:53;;;;;;;;;48.00;36.75;;;;;4.30;55.47;99463.41;6029272;23;45847;-71
2022/12/14 12:43:30;;;;;;;;;42.25;36.50;;;;;4.33;55.82;99462.38;6111154;23;45646;-72
2022/12/14 12:46:01;;;;;;;;;45.00;34.50;;;;;4.32;55.67;99464.13;6116409;23;46940;-71
2022/12/14 12:48:29;;;;;;;;;38.00;33.50;;;;;4.31;55.58;99465.09;6116452;23;47084;-72
2022/12/14 12:51:00;;;;;;;;;46.50;37.75;;;;;4.39;55.85;99473.19;6141007;23;45592;-72
2022/12/14 12:53:40;;;;;;;;;44.00;37.25;;;;;4.42;55.45;99474.78;6148854;23;45577;-72
2022/12/14 12:56:19;;;;;;;;;40.75;34.50;;;;;4.39;55.97;99454.19;6149480;23;45596;-72
2022/12/14 12:58:46;;;;;;;;;42.75;36.00;;;;;4.33;55.63;99439.88;6149398;23;46220;-71
2022/12/14 13:01:24;;;;;;;;;38.00;31.25;;;;;4.52;55.34;99457.69;6150275;23;45818;-71
2022/12/14 13:03:54;;;;;;;;;41.25;37.25;;;;;4.54;55.54;99446.25;6150632;23;45977;-73
2022/12/14 13:06:23;;;;;;;;;37.00;33.00;;;;;4.59;55.23;99454.56;6149383;23;46543;-72
2022/12/14 13:08:56;;;;;;;;;40.50;36.00;;;;;4.61;55.14;99457.06;6148898;23;46280;-71
2022/12/14 13:11:27;;;;;;;;;48.50;35.75;;;;;4.60;55.04;99456.25;6148825;23;45552;-72
2022/12/14 13:14:00;;;;;;;;;26.75;24.00;;;;;4.61;55.39;99451.88;6149653;23;45596;-70
2022/12/14 13:16:36;;;;;;;;;51.00;37.50;;;;;4.64;55.13;99454.31;6149348;23;45665;-72
2022/12/14 13:19:34;;;;;;;;;33.75;28.50;;;;;4.65;55.31;99445.56;6149339;23;46289;-72